Time;durP1;ratioP1;P1;durP2;ratioP2;P2;SDS_P1;SDS_P2;PMS_P1;PMS_P2;Temp;Humidity;BMP_temperature;BMP_pressure;BME280_temperature;BME280_humidity;BME280_pressure;Samples;Min_cycle;Max_cycle;Signal;HPM_P1;HPM_P2
2021/06/17 00:02:08;;;;;;;10.70;6.80;;;17.90;99.90;;;;;;5010018;28;20226;-90
2021/06/17 00:04:35;;;;;;;9.30;6.53;;;17.90;99.90;;;;;;5017218;28;20214;-88
2021/06/17 00:07:01;;;;;;;8.30;7.40;;;17.90;99.90;;;;;;5033813;28;20198;-88
2021/06/17 00:09:28;;;;;;;10.30;8.03;;;17.90;99.90;;;;;;5018599;28;20940;-89
2021/06/17 00:12:00;;;;;;;12.33;8.20;;;17.90;99.90;;;;;;5032413;28;20222;-88
2021/06/17 00:14:28;;;;;;;10.03;7.50;;;18.00;99.90;;;;;;5019911;28;20341;-87
2021/06/17 00:16:55;;;;;;;10.60;8.20;;;18.10;99.90;;;;;;5033885;28;20214;-87
2021/06/17 00:19:20;;;;;;;11.10;7.27;;;18.10;99.90;;;;;;5032690;28;20223;-87
2021/06/17 00:21:46;;;;;;;10.57;7.30;;;18.10;99.90;;;;;;5035571;28;21074;-88
2021/06/17 00:24:12;;;;;;;9.63;7.53;;;18.00;99.90;;;;;;5001041;28;20234;-86
2021/06/17 00:26:38;;;;;;;10.43;7.73;;;18.00;99.90;;;;;;4999844;28;20217;-88
2021/06/17 00:29:03;;;;;;;9.03;7.23;;;18.00;99.90;;;;;;5015243;28;20223;-88
2021/06/17 00:31:29;;;;;;;12.30;7.80;;;17.90;99.90;;;;;;5033284;28;20785;-88
2021/06/17 00:33:55;;;;;;;10.87;7.77;;;17.80;99.90;;;;;;5032102;28;20192;-88
2021/06/17 00:36:21;;;;;;;12.80;8.43;;;17.90;99.90;;;;;;5018218;28;20195;-90
2021/06/17 00:38:47;;;;;;;14.27;9.40;;;17.80;99.90;;;;;;5015046;28;20909;-88
2021/06/17 00:41:13;;;;;;;10.63;7.60;;;17.80;99.90;;;;;;5033205;28;20225;-89
2021/06/17 00:43:39;;;;;;;13.07;8.20;;;17.80;99.90;;;;;;5033340;28;20229;-90
2021/06/17 00:46:06;;;;;;;11.87;8.00;;;17.80;99.90;;;;;;5034410;28;21002;-88
2021/06/17 00:48:31;;;;;;;11.70;7.70;;;17.70;99.90;;;;;;5033847;28;20192;-88
2021/06/17 00:50:59;;;;;;;10.40;7.87;;;17.60;99.90;;;;;;4999781;28;20222;-88
2021/06/17 00:53:30;;;;;;;13.37;8.53;;;17.50;99.90;;;;;;5034270;28;20217;-88
2021/06/17 00:55:57;;;;;;;16.93;8.10;;;17.30;99.90;;;;;;5033666;28;20244;-88
2021/06/17 00:58:23;;;;;;;12.73;7.90;;;17.30;99.90;;;;;;5034784;28;20577;-88
2021/06/17 01:00:49;;;;;;;11.47;8.13;;;17.20;99.90;;;;;;5015891;28;20277;-89
2021/06/17 01:03:16;;;;;;;11.40;8.03;;;17.20;99.90;;;;;;5033618;28;20230;-87
2021/06/17 01:05:42;;;;;;;10.80;7.73;;;17.20;99.90;;;;;;5031248;28;20214;-87
2021/06/17 01:08:30;;;;;;;12.77;8.40;;;17.20;99.90;;;;;;5034666;28;20587;-87
2021/06/17 01:11:15;;;;;;;11.37;8.57;;;17.30;99.90;;;;;;5035858;28;20227;-88
2021/06/17 01:14:05;;;;;;;14.77;10.17;;;17.30;99.90;;;;;;5034120;28;20215;-86
2021/06/17 01:16:42;;;;;;;11.33;9.13;;;17.30;99.90;;;;;;5033100;28;20244;-88
2021/06/17 01:19:26;;;;;;;12.70;8.73;;;17.30;99.90;;;;;;5033565;28;20190;-90
2021/06/17 01:21:58;;;;;;;15.70;9.67;;;17.20;99.90;;;;;;5030571;28;20217;-87
2021/06/17 01:24:54;;;;;;;9.53;7.37;;;17.20;99.90;;;;;;5009248;28;20270;-89
2021/06/17 01:27:51;;;;;;;17.63;9.43;;;17.10;99.90;;;;;;5013654;28;20215;-88
2021/06/17 01:30:18;;;;;;;12.63;8.20;;;17.10;99.90;;;;;;5030824;28;20221;-90
2021/06/17 01:32:47;;;;;;;14.37;8.87;;;17.00;99.90;;;;;;5012881;28;20702;-88
2021/06/17 01:35:17;;;;;;;11.90;8.13;;;16.90;99.90;;;;;;5034464;28;20213;-89
2021/06/17 01:37:45;;;;;;;11.37;8.50;;;16.90;99.90;;;;;;5033554;28;20218;-89
2021/06/17 01:40:13;;;;;;;17.63;9.03;;;16.90;99.90;;;;;;5017750;28;20226;-90
2021/06/17 01:42:42;;;;;;;11.70;8.57;;;16.80;99.90;;;;;;5047982;28;20192;-89
2021/06/17 01:45:09;;;;;;;13.00;9.07;;;16.80;99.90;;;;;;5032187;28;20217;-88
2021/06/17 01:47:36;;;;;;;15.90;9.23;;;16.70;99.90;;;;;;5014891;28;20221;-88
2021/06/17 01:50:05;;;;;;;11.57;8.23;;;16.80;99.90;;;;;;5031377;28;20206;-87
2021/06/17 01:52:33;;;;;;;12.47;9.70;;;16.70;99.90;;;;;;5031145;28;20231;-89
2021/06/17 01:55:00;;;;;;;19.73;11.30;;;16.70;99.90;;;;;;5015722;28;20252;-88
2021/06/17 01:57:28;;;;;;;16.40;9.90;;;16.80;99.90;;;;;;5031765;28;20186;-89
2021/06/17 01:59:54;;;;;;;14.70;10.43;;;16.90;99.90;;;;;;5033495;28;20610;-91
2021/06/17 02:02:21;;;;;;;13.43;9.70;;;16.90;99.90;;;;;;5032718;28;20214;-88
2021/06/17 02:04:51;;;;;;;15.90;10.30;;;16.90;99.90;;;;;;5032952;28;20221;-90
2021/06/17 02:07:19;;;;;;;13.57;10.30;;;16.90;99.90;;;;;;5034818;28;20221;-89
2021/06/17 02:09:47;;;;;;;16.17;10.10;;;16.90;99.90;;;;;;5031152;28;20755;-92
2021/06/17 02:12:13;;;;;;;13.87;10.17;;;17.00;99.90;;;;;;5032383;28;20222;-90
2021/06/17 02:14:44;;;;;;;15.67;10.43;;;17.00;99.90;;;;;;5049056;28;20306;-92
2021/06/17 02:17:12;;;;;;;16.33;10.47;;;17.00;99.90;;;;;;5034337;28;20214;-90
2021/06/17 02:19:38;;;;;;;18.13;10.50;;;17.00;99.90;;;;;;5016315;28;20710;-91
2021/06/17 02:22:05;;;;;;;16.03;10.83;;;16.90;99.90;;;;;;5030845;28;21262;-91
2021/06/17 02:24:36;;;;;;;19.63;10.67;;;16.90;99.90;;;;;;5032218;28;20182;-89
2021/06/17 02:27:07;;;;;;;14.63;10.63;;;16.80;99.90;;;;;;5032816;28;20288;-91
2021/06/17 02:29:40;;;;;;;13.80;10.17;;;16.80;99.90;;;;;;5031842;28;20214;-90
2021/06/17 02:32:09;;;;;;;14.27;10.03;;;16.70;99.90;;;;;;5032398;28;20305;-90
2021/06/17 02:34:35;;;;;;;14.60;9.70;;;16.70;99.90;;;;;;5032079;28;20364;-90
2021/06/17 02:37:02;;;;;;;15.80;9.93;;;16.70;99.90;;;;;;5016060;28;20191;-90
2021/06/17 02:39:29;;;;;;;16.37;10.00;;;16.70;99.90;;;;;;5032188;28;20273;-90
2021/06/17 02:41:58;;;;;;;14.47;10.67;;;16.70;99.90;;;;;;5030537;28;20233;-90
2021/06/17 02:44:28;;;;;;;17.00;10.90;;;16.70;99.90;;;;;;5048490;28;20341;-90
2021/06/17 02:46:54;;;;;;;14.87;11.13;;;16.80;99.90;;;;;;5031651;28;20221;-89
2021/06/17 02:49:21;;;;;;;15.97;10.50;;;16.80;99.90;;;;;;5031408;28;20272;-88
2021/06/17 02:51:47;;;;;;;15.50;11.27;;;16.80;99.90;;;;;;5033732;28;20210;-91
2021/06/17 02:54:18;;;;;;;19.17;12.50;;;16.90;99.90;;;;;;5034065;28;20263;-90
2021/06/17 02:57:21;;;;;;;17.63;11.60;;;16.90;99.90;;;;;;5031440;28;20747;-91
2021/06/17 03:00:07;;;;;;;18.47;12.10;;;16.90;99.90;;;;;;5032406;28;20240;-91
2021/06/17 03:03:00;;;;;;;15.87;11.90;;;16.90;99.90;;;;;;5032627;28;20213;-91
2021/06/17 03:05:52;;;;;;;14.90;10.73;;;16.70;99.90;;;;;;5050160;28;20232;-89
2021/06/17 03:08:30;;;;;;;22.90;10.90;;;16.60;99.90;;;;;;5031769;28;20271;-90
2021/06/17 03:10:59;;;;;;;15.63;10.87;;;16.60;99.90;;;;;;5030397;28;20229;-89
2021/06/17 03:13:29;;;;;;;21.47;11.23;;;16.60;99.90;;;;;;5031600;28;20235;-88
2021/06/17 03:15:55;;;;;;;17.70;11.53;;;16.60;99.90;;;;;;5032165;28;20919;-87
2021/06/17 03:18:21;;;;;;;15.70;11.37;;;16.60;99.90;;;;;;5032361;28;20197;-88
2021/06/17 03:20:49;;;;;;;16.93;10.70;;;16.60;99.90;;;;;;5013373;28;20214;-88
2021/06/17 03:23:18;;;;;;;17.13;10.23;;;16.50;99.90;;;;;;5033563;28;20272;-89
2021/06/17 03:25:52;;;;;;;15.87;9.80;;;16.40;99.90;;;;;;5031577;28;20222;-91
2021/06/17 03:28:20;;;;;;;15.33;10.73;;;16.40;99.90;;;;;;5047526;28;20214;-91
2021/06/17 03:30:48;;;;;;;19.53;10.83;;;16.30;99.90;;;;;;5033141;28;20275;-91
2021/06/17 03:33:16;;;;;;;15.00;10.53;;;16.30;99.90;;;;;;5035431;28;20327;-89
2021/06/17 03:35:44;;;;;;;15.70;11.07;;;16.40;99.90;;;;;;5035546;28;20218;-91
2021/06/17 03:38:11;;;;;;;14.60;12.13;;;16.40;99.90;;;;;;5032899;28;20327;-91
2021/06/17 03:40:38;;;;;;;16.27;10.80;;;16.40;99.90;;;;;;5036687;28;20220;-91
2021/06/17 03:43:05;;;;;;;14.93;11.87;;;16.40;99.90;;;;;;5035367;28;20185;-91
2021/06/17 03:45:34;;;;;;;16.10;11.60;;;16.50;99.90;;;;;;5037811;28;20178;-90
2021/06/17 03:48:01;;;;;;;20.30;11.83;;;16.50;99.90;;;;;;5036092;28;20241;-91
2021/06/17 03:50:27;;;;;;;16.53;12.77;;;16.50;99.90;;;;;;5035654;28;20233;-90
2021/06/17 03:52:56;;;;;;;13.70;11.23;;;16.60;99.90;;;;;;5037551;28;20313;-91
2021/06/17 03:55:23;;;;;;;24.73;13.23;;;16.60;99.90;;;;;;5027154;28;20222;-89
2021/06/17 03:57:52;;;;;;;16.77;13.60;;;16.80;99.90;;;;;;5037500;28;20714;-90
2021/06/17 04:00:18;;;;;;;18.47;14.67;;;16.90;99.90;;;;;;5032790;28;20815;-90
2021/06/17 04:02:46;;;;;;;18.17;12.53;;;17.00;99.90;;;;;;5016808;28;20226;-89
2021/06/17 04:05:13;;;;;;;17.37;12.20;;;17.10;99.90;;;;;;5030915;28;20233;-88
2021/06/17 04:07:41;;;;;;;18.53;13.03;;;17.20;99.90;;;;;;5033690;28;20224;-89
2021/06/17 04:10:09;;;;;;;19.53;14.00;;;17.30;99.90;;;;;;5052935;28;20210;-90
2021/06/17 04:12:39;;;;;;;20.30;13.60;;;17.40;99.90;;;;;;5019034;28;20217;-89
2021/06/17 04:15:06;;;;;;;16.97;12.23;;;17.60;99.90;;;;;;5036149;28;20233;-88
2021/06/17 04:17:41;;;;;;;22.70;13.97;;;17.70;99.90;;;;;;5034938;28;20223;-89
2021/06/17 04:20:15;;;;;;;21.00;14.40;;;17.90;99.90;;;;;;5033972;28;20218;-90
2021/06/17 04:22:45;;;;;;;19.63;14.03;;;18.20;99.90;;;;;;5033480;28;20222;-89
2021/06/17 04:25:12;;;;;;;21.33;14.33;;;18.40;99.90;;;;;;5033812;28;20607;-88
2021/06/17 04:27:40;;;;;;;20.83;13.23;;;18.50;99.90;;;;;;5033541;28;20232;-88
2021/06/17 04:30:07;;;;;;;18.70;12.90;;;18.60;99.90;;;;;;5033890;28;20218;-88
2021/06/17 04:32:34;;;;;;;19.93;14.67;;;18.70;99.90;;;;;;5015001;28;20246;-87
2021/06/17 04:35:00;;;;;;;20.60;14.13;;;18.80;99.90;;;;;;5013694;28;20704;-90
2021/06/17 04:37:27;;;;;;;19.70;14.90;;;18.90;99.90;;;;;;5018600;28;20214;-85
2021/06/17 04:39:55;;;;;;;21.70;14.53;;;18.90;99.90;;;;;;5017837;28;20190;-87
2021/06/17 04:42:22;;;;;;;18.20;13.80;;;19.00;99.90;;;;;;5032724;28;20219;-89
2021/06/17 04:44:48;;;;;;;19.27;14.13;;;19.10;99.90;;;;;;5031518;28;21036;-88
2021/06/17 04:47:18;;;;;;;23.50;15.60;;;19.20;99.90;;;;;;5049684;28;20276;-88
2021/06/17 04:49:44;;;;;;;21.40;14.47;;;19.20;99.90;;;;;;5033888;28;20210;-90
2021/06/17 04:52:27;;;;;;;20.07;14.17;;;19.20;99.90;;;;;;5033191;28;20249;-90
2021/06/17 04:54:52;;;;;;;20.87;14.37;;;19.20;99.90;;;;;;5034626;28;20675;-88
2021/06/17 04:57:18;;;;;;;24.10;15.00;;;19.30;99.90;;;;;;4999410;28;20215;-88
2021/06/17 04:59:44;;;;;;;20.43;14.73;;;19.40;99.90;;;;;;5015519;28;20218;-88
2021/06/17 05:02:09;;;;;;;24.07;15.50;;;19.50;99.90;;;;;;5014256;28;20252;-88
2021/06/17 05:04:36;;;;;;;23.60;15.80;;;19.80;99.90;;;;;;5007613;28;20983;-88
2021/06/17 05:12:12;;;;;;;25.97;16.53;;;20.40;99.90;;;;;;5033840;28;20234;-88
2021/06/17 05:14:38;;;;;;;20.63;16.23;;;20.60;99.90;;;;;;5031712;28;20225;-89
2021/06/17 05:17:04;;;;;;;21.63;16.03;;;21.70;99.90;;;;;;5029285;28;20240;-89
2021/06/17 05:19:30;;;;;;;23.30;16.73;;;23.00;99.90;;;;;;5015903;28;20213;-88
2021/06/17 05:21:55;;;;;;;18.53;14.10;;;24.10;99.90;;;;;;5031854;28;20590;-88
2021/06/17 05:24:21;;;;;;;22.00;14.73;;;24.60;99.90;;;;;;5015370;28;20198;-89
2021/06/17 05:26:47;;;;;;;21.30;14.43;;;24.40;99.90;;;;;;5033673;28;20218;-89
2021/06/17 05:29:13;;;;;;;16.40;13.63;;;24.80;99.90;;;;;;5033118;28;20221;-89
2021/06/17 05:31:39;;;;;;;19.80;14.02;;;25.40;99.90;;;;;;5016850;28;20234;-89
2021/06/17 05:34:04;;;;;;;17.95;13.18;;;25.90;99.90;;;;;;5031677;28;20245;-87
2021/06/17 05:36:30;;;;;;;23.45;13.32;;;26.20;99.90;;;;;;5015262;28;20227;-88
2021/06/17 05:38:56;;;;;;;15.18;12.93;;;26.80;99.90;;;;;;5015368;28;20222;-91
2021/06/17 05:41:22;;;;;;;16.88;13.35;;;27.20;99.90;;;;;;5014636;28;20249;-89
2021/06/17 05:43:48;;;;;;;16.95;12.15;;;27.70;99.90;;;;;;5014543;28;20214;-87
2021/06/17 05:46:14;;;;;;;17.55;13.13;;;27.70;99.90;;;;;;5032610;28;20344;-88
2021/06/17 05:48:41;;;;;;;20.27;13.10;;;27.20;99.90;;;;;;5032765;28;20171;-86
2021/06/17 05:51:06;;;;;;;18.02;13.13;;;27.30;99.90;;;;;;5032470;28;20312;-90
2021/06/17 05:53:32;;;;;;;15.68;13.93;;;26.30;99.90;;;;;;5015439;28;20348;-91
2021/06/17 05:55:59;;;;;;;17.60;13.50;;;25.20;99.90;;;;;;5031040;28;20215;-87
2021/06/17 05:58:24;;;;;;;15.70;12.50;;;24.70;99.90;;;;;;5033877;28;20226;-87
2021/06/17 06:00:51;;;;;;;15.48;13.27;;;24.70;99.90;;;;;;5016714;28;20194;-92
2021/06/17 06:03:17;;;;;;;21.45;14.75;;;25.80;99.90;;;;;;5031929;28;20567;-84
2021/06/17 06:05:43;;;;;;;15.40;13.45;;;26.80;99.90;;;;;;5031696;28;20305;-87
2021/06/17 06:08:11;;;;;;;15.63;13.60;;;27.40;99.90;;;;;;5014477;28;20312;-84
2021/06/17 06:10:38;;;;;;;15.90;13.82;;;28.10;99.90;;;;;;5012757;28;20218;-89
2021/06/17 06:13:04;;;;;;;14.35;12.93;;;27.90;99.90;;;;;;5031766;28;21207;-89
2021/06/17 06:15:33;;;;;;;16.00;12.95;;;28.10;99.90;;;;;;5032007;28;20223;-84
2021/06/17 06:18:07;;;;;;;15.55;13.45;;;27.90;99.90;;;;;;5029380;28;20217;-86
2021/06/17 06:20:33;;;;;;;18.15;13.95;;;27.40;99.90;;;;;;5029996;28;20245;-87
2021/06/17 06:22:59;;;;;;;17.48;12.90;;;27.40;99.90;;;;;;5031019;28;20233;-87
2021/06/17 06:25:25;;;;;;;15.70;13.60;;;27.40;99.90;;;;;;5029961;28;20223;-85
2021/06/17 06:27:51;;;;;;;17.25;13.63;;;27.60;99.90;;;;;;5014436;28;20205;-85
2021/06/17 06:30:18;;;;;;;16.67;12.85;;;27.90;99.90;;;;;;5031165;28;20409;-87
2021/06/17 06:32:44;;;;;;;16.20;12.85;;;27.80;99.90;;;;;;5011834;28;20233;-86
2021/06/17 06:35:10;;;;;;;17.33;14.40;;;28.20;99.90;;;;;;5027343;28;20695;-84
2021/06/17 06:37:37;;;;;;;15.75;12.75;;;28.10;99.90;;;;;;5011888;28;20464;-83
2021/06/17 06:40:03;;;;;;;17.23;13.40;;;27.90;99.90;;;;;;5029293;28;20599;-85
2021/06/17 06:42:29;;;;;;;18.85;14.30;;;28.10;99.90;;;;;;5031799;28;20197;-91
2021/06/17 06:44:55;;;;;;;18.15;13.63;;;28.60;99.90;;;;;;5029481;28;20210;-89
2021/06/17 06:47:21;;;;;;;15.15;13.55;;;28.50;99.90;;;;;;5026868;28;20211;-92
2021/06/17 06:49:47;;;;;;;16.88;14.35;;;28.60;99.90;;;;;;5024993;28;20225;-87
2021/06/17 06:52:12;;;;;;;15.38;13.27;;;28.20;99.90;;;;;;5031596;28;21097;-87
2021/06/17 06:54:38;;;;;;;18.10;13.38;;;28.00;99.90;;;;;;5013011;28;20183;-86
2021/06/17 06:57:04;;;;;;;18.30;13.73;;;28.00;99.90;;;;;;5032592;28;20251;-93
2021/06/17 06:59:30;;;;;;;17.35;13.65;;;28.70;99.90;;;;;;5032078;28;20244;-88
2021/06/17 07:01:57;;;;;;;15.90;14.15;;;28.50;99.90;;;;;;5030823;28;20978;-89
2021/06/17 07:04:25;;;;;;;16.85;13.45;;;28.80;99.90;;;;;;5015530;28;20303;-87
2021/06/17 07:06:51;;;;;;;16.77;13.82;;;28.90;99.90;;;;;;5032376;28;20646;-86
2021/06/17 07:09:17;;;;;;;16.45;14.05;;;29.20;99.90;;;;;;5016730;28;20266;-88
2021/06/17 07:11:45;;;;;;;18.45;14.30;;;29.10;99.90;;;;;;5035420;28;20843;-87
2021/06/17 07:14:11;;;;;;;16.30;13.93;;;29.00;99.90;;;;;;5034311;28;20218;-87
2021/06/17 07:16:37;;;;;;;16.42;13.85;;;28.50;99.90;;;;;;5010172;28;20562;-89
2021/06/17 07:19:05;;;;;;;17.45;14.05;;;28.40;99.90;;;;;;5016080;28;20236;-88
2021/06/17 07:21:31;;;;;;;18.40;14.82;;;28.40;99.90;;;;;;5034387;28;20218;-85
2021/06/17 07:23:57;;;;;;;16.92;15.18;;;29.00;99.90;;;;;;5017201;28;20256;-89
2021/06/17 07:26:27;;;;;;;15.48;13.75;;;29.20;99.90;;;;;;5016230;28;20228;-87
2021/06/17 07:28:54;;;;;;;17.17;13.85;;;29.30;99.90;;;;;;5010363;28;20219;-86
2021/06/17 07:31:19;;;;;;;19.15;14.40;;;29.10;99.90;;;;;;5015806;28;20289;-87
2021/06/17 07:33:45;;;;;;;16.58;12.75;;;29.80;99.90;;;;;;5035741;28;20636;-88
2021/06/17 07:36:14;;;;;;;17.25;14.25;;;29.50;99.90;;;;;;5035726;28;20249;-86
2021/06/17 07:38:41;;;;;;;16.60;13.93;;;29.00;99.90;;;;;;5032168;28;20234;-88
2021/06/17 07:41:07;;;;;;;16.20;13.80;;;29.40;99.90;;;;;;5032223;28;20940;-86
2021/06/17 07:43:34;;;;;;;18.38;14.15;;;29.30;99.90;;;;;;5032709;28;20222;-87
2021/06/17 07:46:00;;;;;;;16.25;13.80;;;29.10;99.90;;;;;;5035431;28;20195;-86
2021/06/17 07:48:29;;;;;;;16.15;13.20;;;29.10;99.90;;;;;;5015947;28;20190;-88
2021/06/17 07:50:54;;;;;;;16.65;13.90;;;28.90;99.90;;;;;;5032756;28;20229;-90
2021/06/17 07:53:20;;;;;;;16.27;12.95;;;29.10;99.90;;;;;;5017304;28;20591;-86
2021/06/17 07:55:46;;;;;;;18.60;14.13;;;29.40;99.90;;;;;;5036916;28;20331;-89
2021/06/17 07:58:13;;;;;;;18.42;14.13;;;29.10;99.90;;;;;;5033061;28;20194;-87
2021/06/17 08:00:39;;;;;;;17.80;14.82;;;28.50;99.90;;;;;;5031947;28;20190;-89
2021/06/17 08:03:06;;;;;;;20.92;14.88;;;28.10;99.90;;;;;;5035972;28;20245;-87
2021/06/17 08:05:31;;;;;;;18.70;15.85;;;27.70;99.90;;;;;;5032222;28;20245;-90
2021/06/17 08:07:57;;;;;;;20.73;15.18;;;27.40;99.90;;;;;;5033182;28;20268;-89
2021/06/17 08:10:26;;;;;;;18.40;15.55;;;27.50;99.90;;;;;;5033246;28;20219;-88
2021/06/17 08:12:52;;;;;;;19.67;14.90;;;28.00;99.90;;;;;;5018397;28;20226;-87
2021/06/17 08:15:18;;;;;;;20.17;15.35;;;28.50;99.90;;;;;;5032108;28;20246;-87
2021/06/17 08:17:45;;;;;;;17.08;13.98;;;28.20;99.90;;;;;;5031780;28;20212;-89
2021/06/17 08:20:13;;;;;;;24.48;14.82;;;27.90;99.90;;;;;;5018494;28;20259;-91
2021/06/17 08:22:41;;;;;;;18.42;15.00;;;27.60;99.90;;;;;;5034947;28;20221;-85
2021/06/17 08:25:08;;;;;;;18.70;14.77;;;27.90;99.90;;;;;;5013471;28;20190;-86
2021/06/17 08:27:35;;;;;;;21.50;16.20;;;28.40;99.90;;;;;;5016533;28;20183;-89
2021/06/17 08:30:04;;;;;;;17.38;15.48;;;29.40;99.90;;;;;;5017248;28;20218;-87
2021/06/17 08:32:30;;;;;;;17.88;14.82;;;30.30;99.90;;;;;;5032522;28;20241;-85
2021/06/17 08:34:55;;;;;;;19.15;13.93;;;30.70;99.90;;;;;;5016867;28;20250;-89
2021/06/17 08:37:21;;;;;;;16.83;14.27;;;30.90;99.90;;;;;;5015878;28;20213;-88
2021/06/17 08:39:47;;;;;;;18.20;14.20;;;31.50;99.90;;;;;;5017475;28;20668;-91
2021/06/17 08:42:13;;;;;;;16.13;12.80;;;31.40;99.90;;;;;;5015458;28;20649;-87
2021/06/17 08:44:39;;;;;;;16.92;13.73;;;31.10;99.90;;;;;;5034109;28;20211;-87
2021/06/17 08:47:05;;;;;;;16.35;13.07;;;30.80;99.90;;;;;;5032629;28;20223;-90
2021/06/17 08:49:31;;;;;;;12.75;11.20;;;31.10;99.90;;;;;;5013382;28;20275;-86
2021/06/17 08:51:59;;;;;;;14.13;11.95;;;30.80;99.90;;;;;;5015569;28;20714;-88
2021/06/17 08:54:26;;;;;;;12.30;10.40;;;30.50;99.90;;;;;;5031815;28;20187;-84
2021/06/17 08:56:54;;;;;;;12.48;10.70;;;30.70;99.90;;;;;;5014719;28;20305;-86
2021/06/17 08:59:32;;;;;;;15.05;11.93;;;30.80;99.90;;;;;;5031136;28;20210;-86
2021/06/17 09:02:00;;;;;;;12.45;11.10;;;30.60;99.90;;;;;;5031788;28;20201;-88
2021/06/17 09:04:28;;;;;;;11.38;10.27;;;30.70;99.90;;;;;;5034061;28;20245;-87
2021/06/17 09:07:06;;;;;;;12.48;9.23;;;31.10;99.90;;;;;;5016140;28;20190;-89
2021/06/17 09:09:47;;;;;;;13.52;10.48;;;30.70;99.90;;;;;;5035267;28;20241;-87
2021/06/17 09:12:19;;;;;;;15.00;9.18;;;31.40;99.90;;;;;;5033656;28;20225;-85
2021/06/17 09:14:51;;;;;;;16.00;8.98;;;31.50;99.90;;;;;;5016762;28;20214;-88
2021/06/17 09:17:17;;;;;;;10.20;9.20;;;31.80;99.90;;;;;;5032527;28;20211;-86
2021/06/17 09:19:45;;;;;;;11.95;8.52;;;31.90;99.90;;;;;;5032921;28;20261;-91
2021/06/17 09:22:16;;;;;;;15.23;9.90;;;31.90;99.90;;;;;;5029897;28;20205;-86
2021/06/17 09:24:46;;;;;;;12.43;10.02;;;32.20;99.90;;;;;;5033114;28;20563;-90
2021/06/17 09:27:26;;;;;;;12.27;10.15;;;32.70;99.90;;;;;;5038072;28;20300;-87
2021/06/17 09:30:13;;;;;;;9.98;8.98;;;32.60;99.90;;;;;;5033398;28;20222;-93
2021/06/17 09:32:51;;;;;;;8.13;7.28;;;32.90;99.90;;;;;;5033588;28;20223;-90
2021/06/17 09:35:26;;;;;;;7.13;6.47;;;32.60;99.90;;;;;;5034600;28;20229;-87
2021/06/17 09:38:04;;;;;;;7.43;6.32;;;34.10;99.90;;;;;;5032426;28;20214;-88
2021/06/17 09:40:34;;;;;;;6.80;5.85;;;34.40;99.90;;;;;;5033271;28;20222;-87
2021/06/17 09:43:16;;;;;;;8.18;7.38;;;35.00;99.90;;;;;;5032581;28;20186;-91
2021/06/17 09:45:52;;;;;;;10.88;7.53;;;35.20;99.90;;;;;;5032096;28;20187;-87
2021/06/17 09:48:49;;;;;;;9.63;7.20;;;34.60;99.90;;;;;;5047885;28;20217;-87
2021/06/17 09:51:30;;;;;;;9.13;7.68;;;34.80;99.90;;;;;;5007130;28;20237;-85
2021/06/17 09:54:17;;;;;;;8.77;7.13;;;35.00;99.90;;;;;;5033288;28;20291;-86
2021/06/17 09:56:48;;;;;;;8.80;7.55;;;35.10;99.90;;;;;;5033153;28;20233;-88
2021/06/17 09:59:30;;;;;;;7.75;7.05;;;35.60;99.90;;;;;;5032328;28;20213;-87
2021/06/17 10:01:56;;;;;;;8.27;7.22;;;35.90;99.90;;;;;;5031937;28;20313;-88
2021/06/17 10:04:23;;;;;;;11.23;7.90;;;35.60;99.90;;;;;;5032247;28;20309;-91
2021/06/17 10:06:50;;;;;;;7.65;6.93;;;35.00;99.90;;;;;;5030323;28;20190;-90
2021/06/17 10:09:19;;;;;;;7.45;6.68;;;34.70;99.90;;;;;;5032753;28;20668;-86
2021/06/17 10:11:46;;;;;;;9.32;6.85;;;34.70;99.90;;;;;;5031089;28;20229;-87
2021/06/17 10:14:13;;;;;;;7.85;6.30;;;34.80;99.90;;;;;;5030012;28;20612;-87
2021/06/17 10:16:42;;;;;;;6.68;6.05;;;35.10;99.90;;;;;;5031659;28;20222;-87
2021/06/17 10:19:09;;;;;;;7.70;7.00;;;35.80;99.70;;;;;;5012237;28;20257;-87
2021/06/17 10:21:35;;;;;;;10.07;7.55;;;35.30;99.30;;;;;;5029113;28;20652;-87
2021/06/17 10:24:02;;;;;;;8.10;7.25;;;34.70;99.90;;;;;;5011544;28;20222;-87
2021/06/17 10:26:39;;;;;;;8.75;7.47;;;34.30;99.90;;;;;;5031302;28;20241;-85
2021/06/17 10:29:05;;;;;;;8.00;7.20;;;34.10;99.90;;;;;;5030229;28;20213;-84
2021/06/17 10:31:39;;;;;;;9.55;8.02;;;33.40;99.90;;;;;;5029808;28;20238;-85
2021/06/17 10:34:26;;;;;;;8.50;7.57;;;32.40;99.90;;;;;;5031190;28;20581;-87
2021/06/17 10:37:26;;;;;;;9.43;7.88;;;32.20;99.90;;;;;;5033019;28;20191;-88
2021/06/17 10:40:04;;;;;;;8.35;7.55;;;31.70;99.90;;;;;;5029755;28;20458;-89
2021/06/17 10:42:38;;;;;;;11.00;8.05;;;32.10;99.90;;;;;;5034780;28;20241;-87
2021/06/17 10:45:27;;;;;;;8.98;8.07;;;32.60;99.90;;;;;;5036703;28;20279;-86
2021/06/17 10:47:55;;;;;;;10.60;8.15;;;32.40;99.90;;;;;;5034107;28;20218;-84
2021/06/17 10:50:29;;;;;;;8.73;7.82;;;32.40;99.90;;;;;;5020647;28;20213;-84
2021/06/17 10:53:32;;;;;;;8.73;7.82;;;32.60;99.90;;;;;;5034313;28;20235;-85
2021/06/17 10:56:05;;;;;;;10.60;8.68;;;32.60;99.90;;;;;;5032564;28;20229;-87
2021/06/17 10:58:45;;;;;;;10.93;9.10;;;32.80;99.90;;;;;;5036643;28;20278;-85
2021/06/17 11:01:24;;;;;;;9.70;8.57;;;32.90;99.90;;;;;;5035742;28;20194;-86
2021/06/17 11:04:18;;;;;;;8.65;7.75;;;32.70;99.90;;;;;;5035755;28;20206;-85
2021/06/17 11:06:56;;;;;;;11.32;8.40;;;32.40;99.90;;;;;;5034939;28;20214;-87
2021/06/17 11:09:37;;;;;;;12.32;9.27;;;31.30;99.90;;;;;;5034994;28;20217;-84
2021/06/17 11:12:27;;;;;;;11.77;10.00;;;30.80;99.90;;;;;;5034068;28;20309;-84
2021/06/17 11:15:01;;;;;;;10.82;8.77;;;30.40;99.90;;;;;;5035094;28;20308;-85
2021/06/17 11:17:27;;;;;;;11.30;8.88;;;30.40;99.90;;;;;;5050190;28;20226;-88
2021/06/17 11:20:22;;;;;;;11.18;10.00;;;30.50;99.90;;;;;;5033674;28;20218;-87
2021/06/17 11:23:01;;;;;;;10.75;9.65;;;30.30;99.90;;;;;;5033800;28;20808;-87
2021/06/17 11:25:30;;;;;;;10.15;8.10;;;30.20;99.90;;;;;;5068898;28;20275;-85
2021/06/17 11:27:59;;;;;;;15.20;9.98;;;29.70;99.90;;;;;;5016291;28;20252;-87
2021/06/17 11:30:41;;;;;;;12.38;9.82;;;29.60;99.90;;;;;;5034062;28;20273;-89
2021/06/17 11:33:19;;;;;;;13.93;10.38;;;29.50;99.90;;;;;;5035798;28;20260;-87
2021/06/17 11:35:47;;;;;;;10.90;9.77;;;29.50;99.90;;;;;;5036806;28;20225;-91
2021/06/17 11:38:20;;;;;;;12.75;10.48;;;29.30;99.90;;;;;;5035393;28;20234;-90
2021/06/17 11:40:46;;;;;;;10.15;9.15;;;29.50;99.90;;;;;;5037587;28;20214;-93
2021/06/17 11:43:12;;;;;;;10.93;9.10;;;29.70;99.90;;;;;;5033259;28;20201;-89
2021/06/17 11:45:38;;;;;;;11.93;10.27;;;29.80;99.90;;;;;;5038189;28;20302;-87
2021/06/17 11:48:08;;;;;;;11.43;9.25;;;30.20;99.90;;;;;;5022729;28;20213;-88
2021/06/17 11:50:48;;;;;;;10.60;7.78;;;30.60;99.90;;;;;;5056884;28;20573;-87
2021/06/17 11:53:18;;;;;;;10.15;7.25;;;29.80;99.90;;;;;;5036341;28;20236;-86
2021/06/17 11:55:48;;;;;;;11.52;8.43;;;29.70;99.90;;;;;;5019842;28;20241;-87
2021/06/17 11:58:14;;;;;;;9.57;8.55;;;29.70;99.90;;;;;;5019113;28;20182;-87
2021/06/17 12:00:40;;;;;;;11.73;8.63;;;29.90;99.90;;;;;;5038275;28;20186;-91
2021/06/17 12:03:20;;;;;;;10.18;8.77;;;30.10;99.90;;;;;;5034932;28;20237;-88
2021/06/17 12:05:52;;;;;;;11.30;8.48;;;30.30;99.90;;;;;;5032497;28;20402;-91
2021/06/17 12:08:24;;;;;;;9.77;8.25;;;30.70;99.90;;;;;;5040227;28;20230;-93
2021/06/17 12:10:57;;;;;;;10.63;9.52;;;31.40;99.90;;;;;;5036819;28;20225;-87
2021/06/17 12:13:23;;;;;;;10.15;7.88;;;32.00;99.90;;;;;;5034378;28;20277;-89
2021/06/17 12:15:56;;;;;;;7.47;6.60;;;32.20;99.90;;;;;;5033270;28;20317;-90
2021/06/17 12:18:22;;;;;;;7.30;6.07;;;32.30;99.90;;;;;;5018035;28;20198;-89
2021/06/17 12:20:49;;;;;;;8.48;7.57;;;32.60;99.90;;;;;;5014493;28;20996;-88
2021/06/17 12:23:31;;;;;;;9.45;7.38;;;32.80;99.90;;;;;;5013708;28;20214;-85
2021/06/17 12:26:04;;;;;;;7.97;7.18;;;33.00;99.90;;;;;;5029237;28;20234;-89
2021/06/17 12:28:31;;;;;;;11.48;7.68;;;33.00;99.90;;;;;;5027893;28;20218;-90
2021/06/17 12:30:58;;;;;;;12.82;6.95;;;33.20;99.90;;;;;;5013331;28;20636;-83
2021/06/17 12:33:31;;;;;;;7.40;6.65;;;33.50;99.90;;;;;;5029789;28;20680;-86
2021/06/17 12:36:01;;;;;;;6.88;6.18;;;33.70;99.90;;;;;;5015279;28;20284;-86
2021/06/17 12:38:28;;;;;;;7.82;7.03;;;33.30;99.90;;;;;;5046871;28;20308;-86
2021/06/17 12:40:55;;;;;;;10.98;7.10;;;33.10;99.90;;;;;;5030228;28;20255;-87
2021/06/17 12:43:25;;;;;;;10.90;7.72;;;32.90;99.90;;;;;;5032964;28;20222;-87
2021/06/17 12:46:07;;;;;;;10.23;7.75;;;32.90;99.90;;;;;;5015896;28;20186;-88
2021/06/17 12:54:08;;;;;;;12.02;9.57;;;32.60;99.90;;;;;;5033323;28;20529;-85
2021/06/17 12:56:36;;;;;;;10.35;9.35;;;33.10;99.90;;;;;;5031645;28;20221;-86
2021/06/17 12:59:02;;;;;;;11.73;9.13;;;33.20;99.90;;;;;;5047134;28;20210;-89